ELY002 KJFK-LLBG
Flight info
| Callsign | ELY002 |
|---|---|
| Flight time | N/A |
| Altitude | 33000 |
| Route | MERIT DCT HFD DCT PUT DCT TUSKY N355C JOOPY/M083F350 DCT 49N050W 51N040W 52N030W 52N020W DCT DINIM DCT ELSOX DCT LULOX/N0464F350 DCT LIZAD/N0467F370 DCT JSY DCT TURDU DCT TADUP DCT TEPRI UN491 POGZI DCT GELTA DCT LUVAL DCT SHARA DCT DEVDI DCT RIPUS DCT RESIA DCT TULIK DCT PUL DCT VELIT DCT RETRA DCT TALAS UN130 TSL/N0468F390 UN130 ESOPO DCT MES UL609 ALKIS L609 APLON DCT PIKOG L609 ZUKKO |
| Aircraft | B772/H-SDE2E3FGHIJ4J5LM1OP2RVWXY/LB1D1 |
Departure
| Time | 2026-05-08 20:16 |
|---|---|
| Airport | John F. Kennedy International Airport (KJFK) |
Arrival
| Time | N/A |
|---|---|
| Airport | Ben Gurion International Airport (LLBG) |
| Time | Latitude | Longitude | Altitude | Speed | Heading |
|---|---|---|---|---|---|
| 2026-05-08 19:49 | 40.64225 | -73.77859 | 26 ft | 0 kts | 8° |
| 2026-05-08 20:02 | 40.64216 | -73.77860 | 26 ft | 4 kts | 8° |
| 2026-05-08 20:03 | 40.64189 | -73.77865 | 26 ft | 4 kts | 8° |
| 2026-05-08 20:03 | 40.64162 | -73.77870 | 26 ft | 4 kts | 8° |
| 2026-05-08 20:03 | 40.64135 | -73.77875 | 26 ft | 4 kts | 8° |
| 2026-05-08 20:03 | 40.64114 | -73.77879 | 26 ft | 3 kts | 8° |
| 2026-05-08 20:04 | 40.64089 | -73.77887 | 26 ft | 4 kts | 27° |
| 2026-05-08 20:04 | 40.64068 | -73.77906 | 26 ft | 4 kts | 49° |
| 2026-05-08 20:04 | 40.64057 | -73.77927 | 26 ft | 0 kts | 60° |
| 2026-05-08 20:07 | 40.64057 | -73.77926 | 26 ft | 1 kts | 60° |
| 2026-05-08 20:08 | 40.64058 | -73.77917 | 26 ft | 3 kts | 90° |
| 2026-05-08 20:08 | 40.64046 | -73.77896 | 26 ft | 1 kts | 160° |
| 2026-05-08 20:08 | 40.64035 | -73.77892 | 26 ft | 3 kts | 165° |
| 2026-05-08 20:08 | 40.64004 | -73.77878 | 26 ft | 7 kts | 158° |
| 2026-05-08 20:09 | 40.63969 | -73.77855 | 26 ft | 10 kts | 151° |
| 2026-05-08 20:09 | 40.63895 | -73.77796 | 26 ft | 14 kts | 148° |
| 2026-05-08 20:09 | 40.63817 | -73.77724 | 26 ft | 12 kts | 142° |
| 2026-05-08 20:10 | 40.63789 | -73.77694 | 26 ft | 3 kts | 140° |
| 2026-05-08 20:10 | 40.63772 | -73.77671 | 26 ft | 4 kts | 141° |
| 2026-05-08 20:10 | 40.63735 | -73.77660 | 26 ft | 7 kts | 189° |
| 2026-05-08 20:10 | 40.63682 | -73.77692 | 26 ft | 10 kts | 210° |
| 2026-05-08 20:11 | 40.63624 | -73.77734 | 26 ft | 10 kts | 211° |
| 2026-05-08 20:11 | 40.63562 | -73.77782 | 26 ft | 8 kts | 187° |
| 2026-05-08 20:11 | 40.63526 | -73.77733 | 26 ft | 8 kts | 86° |
| 2026-05-08 20:11 | 40.63566 | -73.77668 | 26 ft | 11 kts | 33° |
| 2026-05-08 20:12 | 40.63612 | -73.77624 | 26 ft | 6 kts | 56° |
| 2026-05-08 20:12 | 40.63613 | -73.77542 | 26 ft | 13 kts | 117° |
| 2026-05-08 20:12 | 40.63561 | -73.77404 | 26 ft | 20 kts | 125° |
| 2026-05-08 20:12 | 40.63484 | -73.77259 | 26 ft | 19 kts | 123° |
| 2026-05-08 20:13 | 40.63414 | -73.77113 | 26 ft | 19 kts | 120° |
| 2026-05-08 20:13 | 40.63360 | -73.76982 | 26 ft | 13 kts | 116° |
| 2026-05-08 20:13 | 40.63307 | -73.76940 | 26 ft | 8 kts | 178° |
| 2026-05-08 20:13 | 40.63250 | -73.76937 | 26 ft | 8 kts | 178° |
| 2026-05-08 20:14 | 40.63186 | -73.76938 | 26 ft | 11 kts | 184° |
| 2026-05-08 20:14 | 40.63106 | -73.76967 | 26 ft | 13 kts | 204° |
| 2026-05-08 20:14 | 40.63020 | -73.77029 | 26 ft | 15 kts | 206° |
| 2026-05-08 20:14 | 40.62923 | -73.77101 | 26 ft | 17 kts | 212° |
| 2026-05-08 20:15 | 40.62856 | -73.77151 | 26 ft | 9 kts | 202° |
| 2026-05-08 20:15 | 40.62825 | -73.77209 | 26 ft | 7 kts | 262° |
| 2026-05-08 20:15 | 40.62827 | -73.77237 | 26 ft | 1 kts | 297° |
| 2026-05-08 20:15 | 40.62860 | -73.77307 | 26 ft | 18 kts | 302° |
| 2026-05-08 20:16 | 40.63048 | -73.77715 | 27 ft | 89 kts | 298° |
| 2026-05-08 20:16 | 40.63469 | -73.78691 | 28 ft | 156 kts | 301° |
| 2026-05-08 20:16 | 40.64105 | -73.80005 | 551 ft | 174 kts | 303° |
| 2026-05-08 20:16 | 40.64659 | -73.81441 | 1534 ft | 179 kts | 285° |
| 2026-05-08 20:17 | 40.64500 | -73.83024 | 2426 ft | 178 kts | 251° |
| 2026-05-08 20:17 | 40.63736 | -73.84302 | 3126 ft | 174 kts | 231° |
| 2026-05-08 20:17 | 40.62831 | -73.85355 | 3599 ft | 181 kts | 226° |
| 2026-05-08 20:17 | 40.61833 | -73.86488 | 3913 ft | 196 kts | 224° |
| 2026-05-08 20:18 | 40.60760 | -73.87683 | 4347 ft | 207 kts | 222° |
| 2026-05-08 20:18 | 40.59439 | -73.88566 | 4793 ft | 224 kts | 197° |
| 2026-05-08 20:18 | 40.57849 | -73.88444 | 5300 ft | 242 kts | 171° |
| 2026-05-08 20:18 | 40.56228 | -73.87559 | 5657 ft | 260 kts | 159° |
| 2026-05-08 20:19 | 40.54554 | -73.86578 | 6128 ft | 267 kts | 165° |
| 2026-05-08 20:19 | 40.52789 | -73.85696 | 6633 ft | 278 kts | 157° |
| 2026-05-08 20:19 | 40.51250 | -73.84009 | 7047 ft | 299 kts | 130° |
| 2026-05-08 20:19 | 40.50383 | -73.81536 | 7825 ft | 302 kts | 105° |
| 2026-05-08 20:20 | 40.50340 | -73.78783 | 8483 ft | 305 kts | 79° |
| 2026-05-08 20:20 | 40.51127 | -73.76202 | 9091 ft | 305 kts | 57° |
| 2026-05-08 20:20 | 40.52385 | -73.73948 | 9710 ft | 307 kts | 48° |
| 2026-05-08 20:20 | 40.53751 | -73.71777 | 10324 ft | 312 kts | 46° |
| 2026-05-08 20:21 | 40.55171 | -73.69532 | 10699 ft | 327 kts | 46° |
| 2026-05-08 20:21 | 40.56632 | -73.67130 | 11052 ft | 344 kts | 47° |
| 2026-05-08 20:21 | 40.58125 | -73.64560 | 11387 ft | 363 kts | 49° |
| 2026-05-08 20:21 | 40.59656 | -73.61813 | 11716 ft | 381 kts | 50° |
| 2026-05-08 20:22 | 40.61214 | -73.58906 | 12200 ft | 394 kts | 51° |
| 2026-05-08 20:22 | 40.62777 | -73.55890 | 12758 ft | 405 kts | 52° |
| 2026-05-08 20:22 | 40.64347 | -73.52777 | 13443 ft | 411 kts | 52° |
| 2026-05-08 20:22 | 40.65389 | -73.50679 | 13897 ft | 416 kts | 52° |
| 2026-05-08 20:23 | 40.67500 | -73.46417 | 14819 ft | 422 kts | 52° |
| 2026-05-08 20:23 | 40.69136 | -73.43173 | 15438 ft | 429 kts | 51° |
| 2026-05-08 20:23 | 40.70797 | -73.39870 | 16155 ft | 433 kts | 51° |